createdAt,value
2023-03-17T00:03:56.419Z,4.15
2023-03-17T00:08:59.238Z,4.05
2023-03-17T00:14:03.233Z,4.50
2023-03-17T00:19:07.748Z,4.20
2023-03-17T00:24:14.724Z,4.22
2023-03-17T00:29:17.860Z,3.70
2023-03-17T00:34:22.270Z,3.90
2023-03-17T00:39:25.373Z,4.15
2023-03-17T00:44:30.379Z,4.38
2023-03-17T00:49:34.731Z,3.70
2023-03-17T00:54:37.595Z,4.15
2023-03-17T00:59:43.878Z,3.70
2023-03-17T01:04:59.579Z,3.63
2023-03-17T01:10:15.815Z,3.78
2023-03-17T01:15:19.729Z,4.03
2023-03-17T01:20:25.611Z,3.90
2023-03-17T01:25:29.055Z,4.13
2023-03-17T01:30:34.293Z,3.67
2023-03-17T01:35:38.851Z,2.72
2023-03-17T01:40:45.225Z,3.63
2023-03-17T01:46:17.175Z,3.65
2023-03-17T01:51:29.481Z,3.93
2023-03-17T01:56:32.409Z,4.35
2023-03-17T02:01:39.325Z,3.63
2023-03-17T02:06:57.348Z,3.63
2023-03-17T02:12:02.606Z,3.72
2023-03-17T02:17:05.444Z,4.15
2023-03-17T02:22:10.157Z,4.07
2023-03-17T02:27:15.823Z,3.67
2023-03-17T02:32:19.611Z,4.18
2023-03-17T02:37:23.779Z,3.95
2023-03-17T02:42:28.291Z,3.97
2023-03-17T02:47:34.667Z,4.05
2023-03-17T02:52:38.936Z,3.83
2023-03-17T02:57:41.933Z,4.30
2023-03-17T03:02:44.821Z,4.20
2023-03-17T03:07:49.001Z,5.22
2023-03-17T03:12:51.997Z,4.25
2023-03-17T03:17:54.881Z,5.00
2023-03-17T03:22:59.298Z,4.63
2023-03-17T03:28:02.081Z,4.60
2023-03-17T03:33:05.622Z,4.90
2023-03-17T03:38:10.120Z,5.10
2023-03-17T03:43:23.017Z,4.53
2023-03-17T03:48:26.641Z,4.53
2023-03-17T03:53:31.123Z,5.10
2023-03-17T03:58:33.948Z,4.60
2023-03-17T04:03:37.225Z,4.90
2023-03-17T04:08:41.421Z,5.03
2023-03-17T04:13:44.184Z,5.30
2023-03-17T04:18:47.272Z,5.32
2023-03-17T04:23:52.157Z,5.18
2023-03-17T04:28:55.436Z,4.50
2023-03-17T04:33:58.193Z,5.20
2023-03-17T04:39:02.632Z,5.28
2023-03-17T04:44:05.919Z,5.18
2023-03-17T04:49:09.487Z,4.95
2023-03-17T04:54:13.797Z,4.88
2023-03-17T04:59:17.152Z,4.82
2023-03-17T05:04:31.110Z,5.30
2023-03-17T05:09:36.361Z,5.32
2023-03-17T05:14:39.345Z,4.43
2023-03-17T05:19:42.488Z,4.50
2023-03-17T05:24:47.619Z,4.90
2023-03-17T05:29:50.485Z,5.68
2023-03-17T05:34:53.290Z,5.25
2023-03-17T05:39:57.641Z,4.35
2023-03-17T05:45:00.561Z,5.38
2023-03-17T05:50:04.726Z,5.47
2023-03-17T05:55:09.999Z,5.43
2023-03-17T06:00:16.178Z,5.50
2023-03-17T06:05:19.164Z,5.78
2023-03-17T06:10:23.663Z,5.40
2023-03-17T06:15:27.005Z,5.25
2023-03-17T06:20:29.826Z,5.18
2023-03-17T06:25:34.616Z,5.85
2023-03-17T06:30:40.550Z,5.55
2023-03-17T06:35:43.572Z,5.90
2023-03-17T06:40:47.911Z,5.60
2023-03-17T06:45:51.532Z,5.85
2023-03-17T06:50:54.290Z,5.50
2023-03-17T06:55:58.703Z,4.78
2023-03-17T07:01:01.481Z,5.20
2023-03-17T07:06:04.516Z,4.97
2023-03-17T07:11:09.399Z,5.60
2023-03-17T07:16:16.875Z,5.40
2023-03-17T07:21:19.778Z,5.15
2023-03-17T07:26:24.552Z,5.50
2023-03-17T07:31:28.276Z,4.53
2023-03-17T07:36:31.474Z,4.40
2023-03-17T07:41:36.666Z,4.60
2023-03-17T07:46:39.595Z,5.50
2023-03-17T07:51:43.252Z,5.20
2023-03-17T07:56:47.412Z,5.63
2023-03-17T08:01:50.581Z,6.28
2023-03-17T08:06:54.550Z,5.25
2023-03-17T08:11:58.980Z,5.35
2023-03-17T08:17:02.564Z,7.82
2023-03-17T08:22:05.836Z,6.05
2023-03-17T08:27:10.254Z,4.95
2023-03-17T08:32:13.543Z,6.78
2023-03-17T08:37:16.909Z,5.00
2023-03-17T08:42:21.534Z,4.13
2023-03-17T08:47:24.957Z,5.00
2023-03-17T08:52:28.814Z,4.13
2023-03-17T08:57:33.529Z,4.30
2023-03-17T09:02:36.290Z,4.50
2023-03-17T09:07:39.154Z,4.28
2023-03-17T09:12:43.490Z,4.35
2023-03-17T09:17:46.210Z,3.83
2023-03-17T09:22:49.370Z,4.43
2023-03-17T09:27:53.477Z,3.90
2023-03-17T09:32:56.207Z,3.97
2023-03-17T09:37:59.124Z,3.70
2023-03-17T09:43:13.750Z,4.13
2023-03-17T09:48:32.481Z,3.47
2023-03-17T09:53:37.590Z,3.70
2023-03-17T09:58:47.284Z,3.63
2023-03-17T10:03:51.578Z,3.88
2023-03-17T10:09:01.645Z,3.60
2023-03-17T10:14:18.988Z,3.25
2023-03-17T10:19:28.110Z,3.08
2023-03-17T10:24:33.664Z,3.40
2023-03-17T10:29:38.338Z,3.17
2023-03-17T10:34:42.885Z,4.38
2023-03-17T10:39:47.862Z,2.63
2023-03-17T10:44:56.214Z,5.00
2023-03-17T10:50:02.496Z,2.47
2023-03-17T10:55:07.478Z,1.95
2023-03-17T11:00:19.912Z,1.98
2023-03-17T11:05:24.789Z,2.22
2023-03-17T11:10:30.113Z,2.25
2023-03-17T11:15:37.842Z,2.17
2023-03-17T11:20:46.958Z,2.03
2023-03-17T11:25:57.508Z,2.30
2023-03-17T11:31:09.421Z,2.47
2023-03-17T11:36:27.004Z,2.38
2023-03-17T11:41:51.781Z,2.50
2023-03-17T11:47:04.126Z,2.60
2023-03-17T11:52:19.686Z,2.10
2023-03-17T11:57:28.132Z,2.08
2023-03-17T12:02:39.479Z,2.90
2023-03-17T12:07:46.690Z,2.38
2023-03-17T12:12:54.114Z,2.35
2023-03-17T12:18:03.324Z,2.78
2023-03-17T12:23:12.630Z,2.83
2023-03-17T12:28:17.986Z,2.83
2023-03-17T12:33:29.464Z,2.55
2023-03-17T12:38:39.006Z,2.67
2023-03-17T12:43:50.260Z,2.90
2023-03-17T12:49:27.509Z,2.40
2023-03-17T12:54:33.057Z,2.35
2023-03-17T12:59:37.616Z,2.30
2023-03-17T13:04:50.399Z,2.53
2023-03-17T13:10:19.359Z,2.35
2023-03-17T13:15:48.722Z,2.47
2023-03-17T13:21:11.654Z,2.20
2023-03-17T13:26:16.280Z,2.20
2023-03-17T13:31:37.720Z,2.65
2023-03-17T13:36:53.707Z,2.25
2023-03-17T13:42:17.588Z,2.30
2023-03-17T13:47:34.747Z,2.10
2023-03-17T13:52:44.242Z,1.98
2023-03-17T13:57:57.234Z,2.25
2023-03-17T14:03:04.626Z,1.80
2023-03-17T14:08:18.294Z,2.10
2023-03-17T14:13:24.536Z,2.28
2023-03-17T14:18:32.094Z,2.22
2023-03-17T14:23:36.587Z,2.17
2023-03-17T14:28:39.650Z,2.17
2023-03-17T14:33:43.008Z,2.20
2023-03-17T14:38:49.883Z,2.38
2023-03-17T14:43:56.145Z,3.97
2023-03-17T14:49:02.277Z,3.05
2023-03-17T14:54:13.881Z,3.88
2023-03-17T14:59:21.762Z,3.50
2023-03-17T15:04:26.321Z,2.50
2023-03-17T15:09:35.372Z,2.42
2023-03-17T15:14:40.585Z,2.50
2023-03-17T15:19:46.307Z,2.17
2023-03-17T15:25:00.948Z,2.22
2023-03-17T15:30:04.190Z,2.40
2023-03-17T15:35:08.728Z,1.73
2023-03-17T15:40:15.615Z,2.33
2023-03-17T15:45:18.699Z,2.47
2023-03-17T15:50:24.869Z,2.20
2023-03-17T15:55:30.618Z,1.80
2023-03-17T16:00:34.647Z,1.95
2023-03-17T16:05:37.567Z,2.17
2023-03-17T16:10:41.760Z,1.98
2023-03-17T16:15:51.761Z,2.13
2023-03-17T16:20:55.392Z,1.77
2023-03-17T16:26:13.682Z,1.77
2023-03-17T16:31:23.825Z,2.10
2023-03-17T16:36:27.073Z,1.90
2023-03-17T16:41:35.838Z,2.00
2023-03-17T16:46:44.689Z,2.30
2023-03-17T16:51:49.450Z,2.00
2023-03-17T16:56:54.624Z,2.10
2023-03-17T17:01:57.418Z,1.90
2023-03-17T17:07:00.222Z,2.25
2023-03-17T17:12:04.571Z,2.58
2023-03-17T17:17:07.506Z,2.63
2023-03-17T17:22:12.468Z,2.40
2023-03-17T17:27:16.647Z,2.63
2023-03-17T17:32:19.665Z,2.90
2023-03-17T17:37:22.506Z,3.72
2023-03-17T17:42:26.707Z,2.95
2023-03-17T17:47:32.130Z,2.42
2023-03-17T17:52:35.273Z,3.60
2023-03-17T17:57:39.427Z,4.57
2023-03-17T18:02:42.275Z,3.10
2023-03-17T18:07:45.158Z,3.08
2023-03-17T18:12:49.330Z,2.97
2023-03-17T18:17:52.529Z,2.67
2023-03-17T18:22:55.781Z,3.70
2023-03-17T18:28:01.296Z,2.60
2023-03-17T18:33:09.666Z,2.88
2023-03-17T18:38:12.454Z,2.53
2023-03-17T18:43:16.587Z,3.47
2023-03-17T18:48:19.384Z,4.05
2023-03-17T18:53:22.286Z,3.60
2023-03-17T18:58:27.243Z,4.00
2023-03-17T19:03:32.089Z,3.58
2023-03-17T19:08:34.976Z,3.35
2023-03-17T19:13:39.628Z,3.50
2023-03-17T19:18:42.832Z,3.28
2023-03-17T19:23:45.665Z,3.83
2023-03-17T19:28:49.831Z,3.20
2023-03-17T19:33:52.659Z,3.45
2023-03-17T19:38:56.274Z,2.88
2023-03-17T19:44:00.624Z,2.58
2023-03-17T19:49:04.664Z,2.78
2023-03-17T19:54:08.030Z,2.03
2023-03-17T19:59:12.257Z,2.60
2023-03-17T20:04:19.340Z,2.78
2023-03-17T20:09:22.931Z,2.72
2023-03-17T20:14:27.081Z,2.60
2023-03-17T20:19:30.146Z,2.58
2023-03-17T20:24:34.440Z,2.63
2023-03-17T20:29:38.644Z,2.47
2023-03-17T20:34:43.056Z,2.67
2023-03-17T20:39:45.931Z,2.90
2023-03-17T20:44:52.820Z,2.65
2023-03-17T20:49:58.733Z,2.63
2023-03-17T20:55:02.332Z,2.58
2023-03-17T21:00:08.172Z,2.90
2023-03-17T21:05:19.744Z,3.05
2023-03-17T21:10:22.518Z,2.58
2023-03-17T21:15:27.062Z,3.00
2023-03-17T21:20:30.234Z,2.60
2023-03-17T21:25:33.202Z,3.38
2023-03-17T21:30:37.931Z,2.35
2023-03-17T21:35:41.149Z,2.55
2023-03-17T21:40:44.097Z,2.40
2023-03-17T21:45:48.494Z,1.85
2023-03-17T21:50:51.320Z,2.20
2023-03-17T21:55:54.089Z,2.00
2023-03-17T22:01:00.259Z,2.33
2023-03-17T22:06:05.233Z,2.40
2023-03-17T22:11:09.731Z,2.22
2023-03-17T22:16:14.905Z,1.80
2023-03-17T22:21:17.919Z,2.33
2023-03-17T22:26:22.434Z,2.40
2023-03-17T22:31:28.561Z,2.72
2023-03-17T22:36:31.900Z,2.45
2023-03-17T22:41:34.603Z,1.90
2023-03-17T22:46:40.749Z,2.20
2023-03-17T22:51:43.544Z,1.80
2023-03-17T22:56:46.376Z,2.85
2023-03-17T23:01:50.413Z,2.20
2023-03-17T23:06:53.678Z,1.92
2023-03-17T23:11:56.443Z,2.38
2023-03-17T23:17:00.925Z,2.13
2023-03-17T23:22:03.657Z,1.95
2023-03-17T23:27:06.925Z,2.30
2023-03-17T23:32:12.656Z,2.75
2023-03-17T23:37:15.427Z,2.60
2023-03-17T23:42:18.306Z,2.47
2023-03-17T23:47:22.425Z,2.75
2023-03-17T23:52:25.639Z,2.95
2023-03-17T23:57:28.332Z,2.70
